Carencro, Louisiana
Current Conditions -  °F | °C
As of 7:53 PM on Wednesday 22 Oct 2014 (Local Time) from KLFT Reporting Station
Clear Clear  
Wind Chill: 66°   Ceiling: Unl
Heat Index: 66°   Visibility: 10mi
Dew Point: 55°   Wind: 5mph
Humidity: 68%   Direction: 40°NE
Pressure: 30.06"   Gusts: NA
Location:  30.32°N, 92.04°W
Report Text: KLFT 230053Z 04004KT 10SM CLR 19/13 A3006 RMK AO2 SLP179 T01890128
Loading
Personal Weather Stations






























Interactive Weather Map
Tropical Storm Tracking
New forecast layout! Learn more

10-Day Weather Forecast

Advertisements
Track Severe Weather on mobile